createdAt,value
2023-01-28T00:01:28.074Z,102659.28
2023-01-28T00:03:55.162Z,102659.88
2023-01-28T00:06:22.183Z,102666.56
2023-01-28T00:08:49.188Z,102671.75
2023-01-28T00:11:16.010Z,102679.56
2023-01-28T00:13:43.434Z,102685.72
2023-01-28T00:16:10.737Z,102683.84
2023-01-28T00:18:37.968Z,102699.88
2023-01-28T00:21:10.012Z,102682.84
2023-01-28T00:23:38.338Z,102688.38
2023-01-28T00:26:06.572Z,102694.31
2023-01-28T00:28:33.537Z,102690.63
2023-01-28T00:31:06.113Z,102688.09
2023-01-28T00:33:33.323Z,102693.06
2023-01-28T00:36:01.143Z,102691.03
2023-01-28T00:38:28.575Z,102696.78
2023-01-28T00:40:55.837Z,102692.22
2023-01-28T00:43:22.971Z,102704.16
2023-01-28T00:45:50.427Z,102702.94
2023-01-28T00:48:17.292Z,102699.66
2023-01-28T00:50:44.368Z,102709.66
2023-01-28T00:53:11.402Z,102711.84
2023-01-28T00:55:39.400Z,102714.25
2023-01-28T00:58:06.227Z,102697.53
2023-01-28T01:00:33.296Z,102704.06
2023-01-28T01:03:00.155Z,102690.44
2023-01-28T01:05:27.246Z,102680.66
2023-01-28T01:07:54.075Z,102689.72
2023-01-28T01:10:21.258Z,102693.44
2023-01-28T01:12:49.099Z,102708.22
2023-01-28T01:15:17.246Z,102710.25
2023-01-28T01:17:45.317Z,102702.41
2023-01-28T01:20:13.795Z,102690.53
2023-01-28T01:22:40.662Z,102708.22
2023-01-28T01:25:07.759Z,102705.91
2023-01-28T01:27:34.515Z,102700.84
2023-01-28T01:30:01.283Z,102709.84
2023-01-28T01:32:31.933Z,102694.25
2023-01-28T01:34:58.796Z,102681.78
2023-01-28T01:37:25.697Z,102679.78
2023-01-28T01:39:52.627Z,102670.56
2023-01-28T01:42:19.906Z,102670.25
2023-01-28T01:44:53.005Z,102678.53
2023-01-28T01:47:21.399Z,102656.16
2023-01-28T01:49:48.560Z,102656.81
2023-01-28T01:52:18.128Z,102657.59
2023-01-28T01:54:46.264Z,102658.44
2023-01-28T01:57:16.133Z,102670.56
2023-01-28T01:59:43.931Z,102688.78
2023-01-28T02:02:11.834Z,102676.25
2023-01-28T02:04:44.906Z,102687.13
2023-01-28T02:07:13.243Z,102693.28
2023-01-28T02:09:41.512Z,102701.50
2023-01-28T02:12:16.975Z,102681.94
2023-01-28T02:15:03.693Z,102675.16
2023-01-28T02:17:30.896Z,102671.69
2023-01-28T02:19:57.970Z,102681.94
2023-01-28T02:22:30.696Z,102690.41
2023-01-28T02:25:16.786Z,102689.00
2023-01-28T02:28:02.570Z,102694.13
2023-01-28T02:30:30.915Z,102687.34
2023-01-28T02:33:01.143Z,102687.34
2023-01-28T02:35:30.796Z,102681.03
2023-01-28T02:38:04.184Z,102681.44
2023-01-28T02:40:34.313Z,102682.63
2023-01-28T02:43:01.113Z,102651.72
2023-01-28T02:45:50.124Z,102628.34
2023-01-28T02:48:18.356Z,102630.44
2023-01-28T02:51:07.638Z,102633.47
2023-01-28T02:53:41.011Z,102624.88
2023-01-28T02:56:14.668Z,102635.88
2023-01-28T02:58:52.776Z,102656.75
2023-01-28T03:01:25.101Z,102667.81
2023-01-28T03:03:54.813Z,102657.63
2023-01-28T03:06:27.125Z,102653.75
2023-01-28T03:09:14.529Z,102662.91
2023-01-28T03:12:05.176Z,102655.84
2023-01-28T03:14:51.367Z,102648.59
2023-01-28T03:17:55.506Z,102659.25
2023-01-28T03:20:43.961Z,102665.31
2023-01-28T03:23:31.012Z,102663.63
2023-01-28T03:26:17.752Z,102680.13
2023-01-28T03:29:05.093Z,102671.56
2023-01-28T03:31:51.308Z,102671.31
2023-01-28T03:34:37.868Z,102660.38
2023-01-28T03:37:04.751Z,102653.81
2023-01-28T03:39:31.738Z,102646.03
2023-01-28T03:41:59.750Z,102654.47
2023-01-28T03:44:45.218Z,102640.34
2023-01-28T03:47:12.481Z,102639.16
2023-01-28T03:49:45.518Z,102639.22
2023-01-28T03:52:13.272Z,102651.63
2023-01-28T03:54:40.087Z,102634.84
2023-01-28T03:57:06.827Z,102608.69
2023-01-28T03:59:34.065Z,102609.81
2023-01-28T04:02:03.154Z,102608.78
2023-01-28T04:04:32.788Z,102609.56
2023-01-28T04:06:59.937Z,102601.28
2023-01-28T04:09:26.717Z,102616.03
2023-01-28T04:11:56.068Z,102612.31
2023-01-28T04:14:22.890Z,102618.56
2023-01-28T04:16:49.767Z,102629.84
2023-01-28T04:19:16.868Z,102647.31
2023-01-28T04:21:43.709Z,102647.13
2023-01-28T04:24:10.586Z,102652.69
2023-01-28T04:26:37.419Z,102654.50
2023-01-28T04:29:04.358Z,102634.66
2023-01-28T04:31:31.612Z,102643.88
2023-01-28T04:33:58.567Z,102660.88
2023-01-28T04:36:25.745Z,102636.03
2023-01-28T04:38:52.871Z,102648.97
2023-01-28T04:41:20.022Z,102654.09
2023-01-28T04:43:49.197Z,102657.91
2023-01-28T04:46:16.612Z,102648.16
2023-01-28T04:48:43.461Z,102653.81
2023-01-28T04:51:10.319Z,102646.38
2023-01-28T04:53:37.127Z,102651.72
2023-01-28T04:56:04.091Z,102659.31
2023-01-28T04:58:31.064Z,102661.84
2023-01-28T05:00:58.336Z,102658.41
2023-01-28T05:03:25.255Z,102634.78
2023-01-28T05:05:52.089Z,102646.53
2023-01-28T05:08:18.869Z,102646.34
2023-01-28T05:10:45.822Z,102651.91
2023-01-28T05:13:12.736Z,102652.09
2023-01-28T05:15:39.545Z,102655.00
2023-01-28T05:18:06.384Z,102640.41
2023-01-28T05:20:33.176Z,102649.03
2023-01-28T05:23:00.036Z,102646.72
2023-01-28T05:25:27.717Z,102648.97
2023-01-28T05:27:54.635Z,102664.16
2023-01-28T05:30:21.872Z,102661.56
2023-01-28T05:32:48.998Z,102655.25
2023-01-28T05:35:16.167Z,102662.59
2023-01-28T05:37:43.412Z,102653.59
2023-01-28T05:40:10.563Z,102659.97
2023-01-28T05:42:37.386Z,102655.91
2023-01-28T05:45:04.319Z,102650.56
2023-01-28T05:47:31.242Z,102648.91
2023-01-28T05:49:58.056Z,102654.91
2023-01-28T05:52:24.883Z,102657.00
2023-01-28T05:54:52.018Z,102664.78
2023-01-28T05:57:18.830Z,102664.38
2023-01-28T05:59:45.743Z,102648.69
2023-01-28T06:02:12.565Z,102647.69
2023-01-28T06:04:39.393Z,102650.16
2023-01-28T06:07:06.491Z,102648.78
2023-01-28T06:09:33.236Z,102643.09
2023-01-28T06:12:00.726Z,102662.75
2023-01-28T06:14:27.508Z,102666.50
2023-01-28T06:16:54.524Z,102663.84
2023-01-28T06:19:21.312Z,102671.13
2023-01-28T06:21:48.216Z,102673.59
2023-01-28T06:24:15.126Z,102671.66
2023-01-28T06:26:41.967Z,102677.75
2023-01-28T06:29:09.268Z,102676.09
2023-01-28T06:31:37.515Z,102669.13
2023-01-28T06:34:04.733Z,102665.97
2023-01-28T06:36:31.613Z,102668.47
2023-01-28T06:38:58.806Z,102666.91
2023-01-28T06:41:25.637Z,102653.06
2023-01-28T06:43:52.693Z,102657.22
2023-01-28T06:46:19.611Z,102647.56
2023-01-28T06:48:46.432Z,102652.25
2023-01-28T06:51:13.272Z,102650.88
2023-01-28T06:53:40.042Z,102650.25
2023-01-28T06:56:07.107Z,102651.91
2023-01-28T06:58:34.352Z,102658.28
2023-01-28T07:01:01.461Z,102651.25
2023-01-28T07:03:28.637Z,102656.03
2023-01-28T07:05:55.363Z,102664.25
2023-01-28T07:08:22.222Z,102673.34
2023-01-28T07:10:49.679Z,102671.13
2023-01-28T07:13:16.494Z,102655.81
2023-01-28T07:15:43.335Z,102642.63
2023-01-28T07:18:10.497Z,102629.72
2023-01-28T07:20:37.685Z,102644.56
2023-01-28T07:23:04.616Z,102654.25
2023-01-28T07:25:31.880Z,102672.34
2023-01-28T07:27:58.980Z,102684.78
2023-01-28T07:30:26.210Z,102690.09
2023-01-28T07:32:56.700Z,102693.22
2023-01-28T07:35:24.047Z,102703.47
2023-01-28T07:37:54.487Z,102707.53
2023-01-28T07:40:21.408Z,102719.69
2023-01-28T07:42:48.255Z,102724.91
2023-01-28T07:45:15.591Z,102722.00
2023-01-28T07:47:42.919Z,102716.84
2023-01-28T07:50:10.476Z,102713.81
2023-01-28T07:52:44.304Z,102720.06
2023-01-28T07:55:12.423Z,102723.63
2023-01-28T07:57:47.647Z,102715.34
2023-01-28T08:00:15.066Z,102722.56
2023-01-28T08:02:44.937Z,102739.63
2023-01-28T08:05:11.974Z,102731.53
2023-01-28T08:07:39.132Z,102713.31
2023-01-28T08:10:06.229Z,102711.19
2023-01-28T08:12:33.008Z,102710.00
2023-01-28T08:14:59.865Z,102686.44
2023-01-28T08:17:27.559Z,102696.59
2023-01-28T08:19:54.329Z,102692.63
2023-01-28T08:22:24.779Z,102704.09
2023-01-28T08:24:51.842Z,102704.03
2023-01-28T08:27:19.002Z,102712.72
2023-01-28T08:29:45.759Z,102712.34
2023-01-28T08:32:12.882Z,102718.41
2023-01-28T08:34:39.633Z,102717.66
2023-01-28T08:37:06.466Z,102721.69
2023-01-28T08:39:33.243Z,102733.94
2023-01-28T08:42:00.110Z,102733.94
2023-01-28T08:44:26.869Z,102735.75
2023-01-28T08:46:53.635Z,102738.06
2023-01-28T08:49:22.239Z,102764.91
2023-01-28T08:51:49.215Z,102753.38
2023-01-28T08:54:16.431Z,102741.63
2023-01-28T08:56:44.888Z,102760.06
2023-01-28T08:59:12.227Z,102758.03
2023-01-28T09:01:39.207Z,102762.06
2023-01-28T09:04:06.215Z,102768.22
2023-01-28T09:06:33.208Z,102778.38
2023-01-28T09:09:00.176Z,102775.25
2023-01-28T09:11:27.750Z,102780.06
2023-01-28T09:13:54.656Z,102776.88
2023-01-28T09:16:21.506Z,102774.50
2023-01-28T09:18:48.533Z,102777.66
2023-01-28T09:21:15.500Z,102787.88
2023-01-28T09:23:42.369Z,102773.75
2023-01-28T09:26:09.348Z,102768.09
2023-01-28T09:28:36.548Z,102780.00
2023-01-28T09:31:04.923Z,102781.94
2023-01-28T09:33:32.354Z,102781.59
2023-01-28T09:36:03.096Z,102787.50
2023-01-28T09:38:30.443Z,102785.41
2023-01-28T09:40:57.544Z,102770.22
2023-01-28T09:43:30.482Z,102779.78
2023-01-28T09:45:58.720Z,102785.47
2023-01-28T09:48:33.135Z,102784.91
2023-01-28T09:51:00.619Z,102800.34
2023-01-28T09:53:35.576Z,102800.19
2023-01-28T09:56:04.441Z,102798.97
2023-01-28T09:58:31.675Z,102800.84
2023-01-28T10:01:10.834Z,102801.75
2023-01-28T10:03:48.042Z,102806.66
2023-01-28T10:06:20.163Z,102808.31
2023-01-28T10:08:55.859Z,102822.16
2023-01-28T10:11:22.691Z,102826.19
2023-01-28T10:13:55.591Z,102815.63
2023-01-28T10:16:22.379Z,102822.88
2023-01-28T10:19:00.923Z,102812.59
2023-01-28T10:21:37.044Z,102825.03
2023-01-28T10:24:06.635Z,102819.31
2023-01-28T10:26:35.971Z,102811.94
2023-01-28T10:29:13.974Z,102806.22
2023-01-28T10:31:44.030Z,102788.19
2023-01-28T10:34:11.206Z,102788.75
2023-01-28T10:36:38.206Z,102786.34
2023-01-28T10:39:06.692Z,102768.47
2023-01-28T10:41:34.705Z,102753.34
2023-01-28T10:44:01.681Z,102746.16
2023-01-28T10:46:29.931Z,102731.22
2023-01-28T10:48:59.964Z,102739.59
2023-01-28T10:51:30.946Z,102739.00
2023-01-28T10:53:57.821Z,102744.19
2023-01-28T10:56:26.660Z,102736.34
2023-01-28T10:58:58.815Z,102735.59
2023-01-28T11:01:25.772Z,102733.47
2023-01-28T11:03:56.484Z,102702.09
2023-01-28T11:06:24.579Z,102691.00
2023-01-28T11:08:51.760Z,102677.91
2023-01-28T11:11:24.626Z,102678.63
2023-01-28T11:13:53.421Z,102640.22
2023-01-28T11:16:20.892Z,102620.84
2023-01-28T11:18:52.192Z,102600.34
2023-01-28T11:21:24.074Z,102591.94
2023-01-28T11:23:53.393Z,102582.94
2023-01-28T11:26:28.345Z,102558.16
2023-01-28T11:28:55.488Z,102551.84
2023-01-28T11:31:26.481Z,102560.84
2023-01-28T11:34:00.692Z,102558.78
2023-01-28T11:36:28.685Z,102548.91
2023-01-28T11:38:56.663Z,102550.97
2023-01-28T11:41:27.196Z,102555.94
2023-01-28T11:43:55.379Z,102546.94
2023-01-28T11:46:22.399Z,102538.13
2023-01-28T11:49:07.767Z,102544.22
2023-01-28T11:51:35.156Z,102574.56
2023-01-28T11:54:10.106Z,102585.50
2023-01-28T11:56:44.666Z,102582.66
2023-01-28T11:59:23.314Z,102592.06
2023-01-28T12:01:59.423Z,102589.09
2023-01-28T12:04:32.323Z,102564.00
2023-01-28T12:07:14.471Z,102546.41
2023-01-28T12:09:44.579Z,102519.13
2023-01-28T12:12:11.395Z,102532.09
2023-01-28T12:14:38.191Z,102546.84
2023-01-28T12:17:25.385Z,102514.00
2023-01-28T12:20:02.125Z,102507.25
2023-01-28T12:22:40.309Z,102499.06
2023-01-28T12:25:26.123Z,102492.50
2023-01-28T12:28:01.062Z,102475.97
2023-01-28T12:30:34.525Z,102489.81
2023-01-28T12:33:01.364Z,102489.06
2023-01-28T12:35:34.061Z,102464.16
2023-01-28T12:38:09.135Z,102466.34
2023-01-28T12:40:48.043Z,102489.34
2023-01-28T12:43:15.196Z,102464.38
2023-01-28T12:45:52.027Z,102465.19
2023-01-28T12:48:28.536Z,102430.25
2023-01-28T12:51:00.436Z,102428.94
2023-01-28T12:53:39.788Z,102429.41
2023-01-28T12:56:18.527Z,102407.72
2023-01-28T12:58:57.355Z,102418.72
2023-01-28T13:01:30.071Z,102433.81
2023-01-28T13:04:20.167Z,102385.25
2023-01-28T13:06:46.959Z,102424.03
2023-01-28T13:09:24.610Z,102395.94
2023-01-28T13:11:52.864Z,73387.22
2023-01-28T13:14:22.283Z,73387.22
2023-01-28T13:16:49.181Z,73387.22
2023-01-28T13:19:18.767Z,102395.94
2023-01-28T13:21:49.456Z,102367.16
2023-01-28T13:24:16.590Z,73387.22
2023-01-28T13:26:47.834Z,73387.22
2023-01-28T13:29:14.638Z,73387.22
2023-01-28T13:31:43.082Z,73387.22
2023-01-28T13:34:36.646Z,73387.22
2023-01-28T13:37:05.800Z,73387.22
2023-01-28T13:39:34.588Z,102382.53
2023-01-28T13:42:10.532Z,73387.22
2023-01-28T13:44:37.619Z,73387.22
2023-01-28T13:47:07.577Z,73387.22
2023-01-28T13:49:45.089Z,73387.22
2023-01-28T13:52:12.148Z,73387.22
2023-01-28T13:54:44.701Z,73387.22
2023-01-28T13:57:37.797Z,73387.22
2023-01-28T14:00:11.728Z,73387.22
2023-01-28T14:03:02.693Z,73387.22
2023-01-28T14:05:49.383Z,73387.22
2023-01-28T14:08:22.321Z,73387.22
2023-01-28T14:10:55.705Z,73387.22
2023-01-28T14:13:26.033Z,73387.22
2023-01-28T14:16:19.749Z,73387.22
2023-01-28T14:18:47.753Z,73387.22
2023-01-28T14:21:25.246Z,102382.53
2023-01-28T14:23:54.310Z,102400.25
2023-01-28T14:26:45.809Z,92945.44
2023-01-28T14:29:16.897Z,102430.91
2023-01-28T14:31:46.775Z,102432.03
2023-01-28T14:34:22.773Z,102426.00
2023-01-28T14:36:53.142Z,102403.75
2023-01-28T14:39:21.589Z,102388.50
2023-01-28T14:41:49.737Z,102367.72
2023-01-28T14:44:33.302Z,102372.28
2023-01-28T14:47:19.114Z,102396.09
2023-01-28T14:49:46.024Z,102418.88
2023-01-28T14:52:33.464Z,102423.88
2023-01-28T14:55:09.489Z,73387.22
2023-01-28T14:57:39.902Z,102469.81
2023-01-28T15:00:22.429Z,102489.34
2023-01-28T15:02:50.865Z,102501.16
2023-01-28T15:05:30.383Z,102501.72
2023-01-28T15:08:02.644Z,102527.38
2023-01-28T15:10:36.048Z,102528.84
2023-01-28T15:13:11.334Z,102539.66
2023-01-28T15:15:39.460Z,102557.81
2023-01-28T15:18:12.799Z,102553.84
2023-01-28T15:20:43.678Z,102586.03
2023-01-28T15:23:14.423Z,102599.03
2023-01-28T15:25:41.370Z,102611.38
2023-01-28T15:28:17.257Z,102616.06
2023-01-28T15:30:49.397Z,102615.66
2023-01-28T15:33:18.598Z,102642.34
2023-01-28T15:35:49.211Z,102656.50
2023-01-28T15:38:17.902Z,102660.81
2023-01-28T15:40:48.112Z,102651.19
2023-01-28T15:43:20.169Z,102641.72
2023-01-28T15:45:48.849Z,102637.66
2023-01-28T15:48:18.494Z,102629.84
2023-01-28T15:50:45.660Z,102636.63
2023-01-28T15:53:16.446Z,102623.88
2023-01-28T15:55:46.612Z,102628.19
2023-01-28T15:58:18.757Z,102612.00
2023-01-28T16:00:46.039Z,102608.84
2023-01-28T16:03:25.006Z,102618.09
2023-01-28T16:05:56.509Z,102622.59
2023-01-28T16:08:36.395Z,102627.25
2023-01-28T16:11:03.950Z,102627.88
2023-01-28T16:13:32.828Z,102635.06
2023-01-28T16:16:01.239Z,102622.13
2023-01-28T16:18:42.578Z,102620.69
2023-01-28T16:21:12.944Z,102600.41
2023-01-28T16:23:39.962Z,102599.16
2023-01-28T16:26:21.321Z,102602.84
2023-01-28T16:28:50.954Z,102602.22
2023-01-28T16:31:18.644Z,102617.19
2023-01-28T16:33:46.205Z,102631.72
2023-01-28T16:36:16.765Z,102627.22
2023-01-28T16:38:43.945Z,102633.56
2023-01-28T16:41:29.715Z,102619.22
2023-01-28T16:43:56.905Z,102631.28
2023-01-28T16:46:26.844Z,102629.44
2023-01-28T16:48:53.826Z,102637.44
2023-01-28T16:51:21.534Z,102632.09
2023-01-28T16:53:49.877Z,102629.44
2023-01-28T16:56:35.716Z,102623.09
2023-01-28T16:59:05.152Z,102628.19
2023-01-28T17:01:32.329Z,102613.00
2023-01-28T17:03:59.200Z,102603.34
2023-01-28T17:06:26.788Z,102601.72
2023-01-28T17:08:54.025Z,102590.63
2023-01-28T17:11:21.042Z,102600.03
2023-01-28T17:13:48.395Z,102602.03
2023-01-28T17:16:15.370Z,102612.72
2023-01-28T17:18:46.877Z,102617.00
2023-01-28T17:21:14.967Z,102622.94
2023-01-28T17:23:41.762Z,102626.22
2023-01-28T17:26:10.615Z,102627.84
2023-01-28T17:28:37.617Z,102637.28
2023-01-28T17:31:14.217Z,102655.31
2023-01-28T17:33:42.604Z,102654.31
2023-01-28T17:36:10.085Z,102646.50
2023-01-28T17:38:37.391Z,102645.50
2023-01-28T17:41:08.731Z,102640.59
2023-01-28T17:43:35.822Z,102640.50
2023-01-28T17:46:10.391Z,102640.13
2023-01-28T17:48:37.314Z,102637.28
2023-01-28T17:51:07.571Z,102639.75
2023-01-28T17:53:34.767Z,102636.00
2023-01-28T17:56:03.479Z,102624.91
2023-01-28T17:58:30.477Z,102624.69
2023-01-28T18:01:00.798Z,102626.34
2023-01-28T18:03:28.139Z,102626.53
2023-01-28T18:06:00.336Z,102618.34
2023-01-28T18:08:29.458Z,102622.81
2023-01-28T18:10:56.489Z,102627.28
2023-01-28T18:13:25.616Z,102641.22
2023-01-28T18:15:53.951Z,102642.47
2023-01-28T18:18:24.023Z,102638.53
2023-01-28T18:21:01.379Z,102646.78
2023-01-28T18:23:28.228Z,102652.44
2023-01-28T18:26:04.029Z,102655.34
2023-01-28T18:28:33.683Z,102654.78
2023-01-28T18:31:07.420Z,102669.88
2023-01-28T18:33:34.335Z,102661.25
2023-01-28T18:36:01.992Z,102660.47
2023-01-28T18:38:28.895Z,102661.50
2023-01-28T18:40:56.092Z,102669.47
2023-01-28T18:43:26.964Z,102665.81
2023-01-28T18:45:54.426Z,102663.97
2023-01-28T18:48:22.897Z,102653.91
2023-01-28T18:50:53.637Z,102657.00
2023-01-28T18:53:21.817Z,102652.91
2023-01-28T18:55:49.096Z,102648.06
2023-01-28T18:58:16.218Z,102640.72
2023-01-28T19:00:43.141Z,102637.25
2023-01-28T19:03:10.087Z,102637.88
2023-01-28T19:05:38.001Z,102639.06
2023-01-28T19:08:05.918Z,102637.31
2023-01-28T19:10:32.818Z,102634.66
2023-01-28T19:12:59.693Z,102629.25
2023-01-28T19:15:26.623Z,102621.47
2023-01-28T19:17:53.545Z,102611.59
2023-01-28T19:20:20.364Z,102611.59
2023-01-28T19:22:47.260Z,102608.31
2023-01-28T19:25:14.461Z,102609.50
2023-01-28T19:27:41.629Z,102606.44
2023-01-28T19:30:09.065Z,102607.47
2023-01-28T19:32:35.890Z,102605.44
2023-01-28T19:35:02.879Z,102598.75
2023-01-28T19:37:29.682Z,102599.75
2023-01-28T19:39:56.546Z,102605.66
2023-01-28T19:42:23.909Z,102610.13
2023-01-28T19:44:51.532Z,102601.34
2023-01-28T19:47:18.353Z,102601.16
2023-01-28T19:49:45.186Z,102592.97
2023-01-28T19:52:12.059Z,102597.28
2023-01-28T19:54:39.211Z,102595.00
2023-01-28T19:57:06.136Z,102602.53
2023-01-28T19:59:33.044Z,102604.25
2023-01-28T20:02:00.108Z,102598.75
2023-01-28T20:04:27.735Z,102601.59
2023-01-28T20:06:54.547Z,102598.13
2023-01-28T20:09:22.111Z,102591.16
2023-01-28T20:11:49.233Z,102601.63
2023-01-28T20:14:18.053Z,102597.94
2023-01-28T20:16:45.160Z,102596.16
2023-01-28T20:19:14.546Z,102597.38
2023-01-28T20:21:41.563Z,102605.56
2023-01-28T20:24:08.710Z,102602.31
2023-01-28T20:26:37.324Z,102598.31
2023-01-28T20:29:06.095Z,102596.38
2023-01-28T20:31:33.616Z,102585.31
2023-01-28T20:34:01.060Z,102583.09
2023-01-28T20:36:27.853Z,102583.69
2023-01-28T20:38:54.708Z,102583.28
2023-01-28T20:41:23.195Z,102571.41
2023-01-28T20:43:50.623Z,102574.53
2023-01-28T20:46:25.533Z,102581.09
2023-01-28T20:48:53.704Z,102580.25
2023-01-28T20:51:39.103Z,102577.19
2023-01-28T20:54:06.347Z,102584.16
2023-01-28T20:56:33.543Z,102588.66
2023-01-28T20:59:02.096Z,102592.78
2023-01-28T21:01:33.913Z,102577.81
2023-01-28T21:04:01.254Z,102582.31
2023-01-28T21:06:28.755Z,102577.38
2023-01-28T21:08:57.206Z,102574.56
2023-01-28T21:11:25.513Z,102571.53
2023-01-28T21:13:52.716Z,102563.91
2023-01-28T21:16:21.402Z,102571.09
2023-01-28T21:18:48.399Z,102575.41
2023-01-28T21:21:22.496Z,102560.25
2023-01-28T21:23:51.045Z,102562.09
2023-01-28T21:26:18.044Z,102568.88
2023-01-28T21:28:45.255Z,102571.34
2023-01-28T21:31:19.995Z,102561.34
2023-01-28T21:33:50.807Z,102564.13
2023-01-28T21:36:18.211Z,102554.75
2023-01-28T21:38:50.762Z,102549.81
2023-01-28T21:41:17.744Z,102551.88
2023-01-28T21:43:44.677Z,102556.78
2023-01-28T21:46:11.769Z,102547.78
2023-01-28T21:48:38.643Z,102548.41
2023-01-28T21:51:24.789Z,102541.44
2023-01-28T21:53:51.756Z,102546.38
2023-01-28T21:56:19.275Z,102551.50
2023-01-28T21:59:06.310Z,102542.28
2023-01-28T22:01:33.647Z,102527.28
2023-01-28T22:04:00.717Z,102536.72
2023-01-28T22:06:27.943Z,102536.72
2023-01-28T22:08:54.991Z,102534.50
2023-01-28T22:11:22.020Z,102535.31
2023-01-28T22:13:48.982Z,102532.88
2023-01-28T22:16:16.544Z,102528.56
2023-01-28T22:18:43.511Z,102517.91
2023-01-28T22:21:11.894Z,102512.16
2023-01-28T22:23:39.098Z,102512.78
2023-01-28T22:26:06.113Z,102521.38
2023-01-28T22:28:33.456Z,102515.03
2023-01-28T22:31:08.572Z,102515.25
2023-01-28T22:33:35.804Z,102510.72
2023-01-28T22:36:07.403Z,102504.00
2023-01-28T22:38:36.907Z,102498.63
2023-01-28T22:41:07.717Z,102501.31
2023-01-28T22:43:35.158Z,102483.69
2023-01-28T22:46:03.653Z,102487.34
2023-01-28T22:48:31.097Z,102473.63
2023-01-28T22:51:07.957Z,102462.38
2023-01-28T22:53:34.838Z,102452.56
2023-01-28T22:56:02.693Z,102447.22
2023-01-28T22:58:31.488Z,102448.06
2023-01-28T23:00:59.157Z,102427.75
2023-01-28T23:03:26.597Z,102430.00
2023-01-28T23:05:57.647Z,102425.09
2023-01-28T23:08:24.481Z,102422.19
2023-01-28T23:10:51.356Z,102409.72
2023-01-28T23:13:19.340Z,102422.63
2023-01-28T23:16:05.318Z,102414.41
2023-01-28T23:18:50.996Z,102411.13
2023-01-28T23:21:36.408Z,102407.25
2023-01-28T23:24:19.179Z,102405.59
2023-01-28T23:26:51.111Z,102409.50
2023-01-28T23:29:19.201Z,102398.22
2023-01-28T23:31:47.391Z,102387.59
2023-01-28T23:34:15.211Z,102386.56
2023-01-28T23:36:42.167Z,102393.13
2023-01-28T23:39:09.423Z,102393.97
2023-01-28T23:41:36.396Z,102379.97
2023-01-28T23:44:03.482Z,102380.22
2023-01-28T23:46:39.027Z,102377.97
2023-01-28T23:49:06.742Z,102383.06
2023-01-28T23:51:33.634Z,102385.72
2023-01-28T23:54:00.759Z,102380.00
2023-01-28T23:56:27.558Z,102380.81
2023-01-28T23:58:55.960Z,102388.19
